Time;durP1;ratioP1;P1;durP2;ratioP2;P2;SDS_P1;SDS_P2;PMS_P1;PMS_P2;Temp;Humidity;BMP_temperature;BMP_pressure;BME280_temperature;BME280_humidity;BME280_pressure;Samples;Min_cycle;Max_cycle;Signal;HPM_P1;HPM_P2
2023/01/12 00:02:03;;;;;;;;;8.25;5.00;;;;;10.67;66.25;101466.84;5018831;28;45959;-55
2023/01/12 00:04:29;;;;;;;;;3.50;1.00;;;;;10.70;66.02;101479.94;5020644;28;45258;-54
2023/01/12 00:06:55;;;;;;;;;3.50;1.50;;;;;10.73;66.07;101469.44;5020894;28;45480;-54
2023/01/12 00:09:21;;;;;;;;;7.00;1.00;;;;;10.72;66.30;101458.03;5020447;28;45228;-52
2023/01/12 00:11:46;;;;;;;;;6.50;2.25;;;;;10.73;66.16;101470.31;5019771;28;45287;-55
2023/01/12 00:14:13;;;;;;;;;4.50;3.00;;;;;10.77;66.22;101465.03;5020262;28;45265;-53
2023/01/12 00:16:39;;;;;;;;;6.75;3.75;;;;;10.79;66.16;101458.03;5019554;28;45301;-54
2023/01/12 00:19:19;;;;;;;;;6.00;3.25;;;;;10.79;66.21;101461.53;5020340;28;45221;-52
2023/01/12 00:21:55;;;;;;;;;5.00;3.00;;;;;10.81;66.08;101459.75;5020271;28;45487;-53
2023/01/12 00:24:25;;;;;;;;;3.00;3.00;;;;;10.82;66.41;101452.75;5020276;28;45329;-53
2023/01/12 00:26:50;;;;;;;;;8.75;4.00;;;;;10.78;66.38;101438.75;5020410;28;45215;-53
2023/01/12 00:29:16;;;;;;;;;4.75;2.00;;;;;10.82;66.46;101437.84;5019870;28;45467;-54
2023/01/12 00:31:42;;;;;;;;;6.25;2.00;;;;;10.83;66.48;101436.97;5018819;28;46388;-54
2023/01/12 00:34:08;;;;;;;;;4.25;3.00;;;;;10.79;66.50;101432.63;5018821;28;45444;-53
2023/01/12 00:36:33;;;;;;;;;5.75;3.75;;;;;10.83;66.50;101451.84;5019126;28;45431;-54
2023/01/12 00:38:59;;;;;;;;;6.25;3.25;;;;;10.80;66.57;101425.59;5020084;28;45328;-52
2023/01/12 00:46:52;;;;;;;;;3.25;3.00;;;;;10.79;66.59;101408.06;5017537;28;45345;-54
2023/01/12 00:49:17;;;;;;;;;4.75;2.75;;;;;10.82;66.72;101421.22;5017356;28;45293;-52
2023/01/12 00:51:43;;;;;;;;;5.75;2.75;;;;;10.82;66.66;101415.97;5019083;28;46172;-55
2023/01/12 00:54:08;;;;;;;;;5.25;2.00;;;;;10.85;66.62;101426.44;5017875;28;45350;-52
2023/01/12 00:56:35;;;;;;;;;9.25;5.25;;;;;10.78;66.89;101416.81;5017717;28;45442;-53
2023/01/12 00:59:00;;;;;;;;;6.00;4.00;;;;;10.77;66.94;101402.81;5018958;28;45431;-53
2023/01/12 01:01:26;;;;;;;;;5.50;3.50;;;;;10.77;66.83;101392.31;5018591;28;45379;-54
2023/01/12 01:03:51;;;;;;;;;3.00;2.00;;;;;10.78;66.85;101370.41;5019175;28;45235;-54
2023/01/12 01:06:16;;;;;;;;;5.00;1.00;;;;;10.84;66.77;101374.72;5018946;28;45373;-53
2023/01/12 01:08:42;;;;;;;;;4.25;2.00;;;;;10.87;66.61;101353.69;5019168;28;45283;-53
2023/01/12 01:11:10;;;;;;;;;4.75;2.00;;;;;10.89;66.61;101368.59;5018753;28;45777;-52
2023/01/12 01:13:39;;;;;;;;;3.00;1.50;;;;;10.87;66.71;101365.06;5018746;28;45335;-53
2023/01/12 01:16:06;;;;;;;;;3.75;3.25;;;;;10.85;66.78;101377.34;5018991;28;45641;-50
2023/01/12 01:18:31;;;;;;;;;5.25;2.50;;;;;10.87;66.84;101385.25;5017432;28;45396;-52
2023/01/12 01:20:57;;;;;;;;;5.00;2.00;;;;;10.86;66.83;101384.34;5018699;28;45282;-53
2023/01/12 01:23:24;;;;;;;;;6.75;4.25;;;;;10.85;66.85;101384.38;5022248;28;45481;-51
2023/01/12 01:25:51;;;;;;;;;3.75;2.50;;;;;10.86;67.02;101380.88;5022825;28;45307;-52
2023/01/12 01:28:17;;;;;;;;;5.50;2.75;;;;;10.89;66.68;101388.72;5022002;28;45739;-53
2023/01/12 01:30:43;;;;;;;;;6.50;3.75;;;;;10.93;66.76;101379.06;5022925;28;45362;-53
2023/01/12 01:33:09;;;;;;;;;7.25;4.00;;;;;10.90;66.80;101358.94;5022935;28;45332;-52
2023/01/12 01:35:35;;;;;;;;;7.25;3.00;;;;;10.93;66.71;101364.19;5023074;28;45736;-51
2023/01/12 01:38:00;;;;;;;;;4.00;2.75;;;;;10.91;66.64;101362.44;5023355;28;45341;-53
2023/01/12 01:40:26;;;;;;;;;4.00;2.25;;;;;10.88;67.02;101372.09;5022832;28;46103;-51
2023/01/12 01:42:51;;;;;;;;;7.00;2.50;;;;;10.85;66.85;101377.34;5022560;28;45284;-53
2023/01/12 01:45:17;;;;;;;;;5.00;4.00;;;;;10.82;66.88;101376.50;5023070;28;45224;-51
2023/01/12 01:47:47;;;;;;;;;6.00;1.00;;;;;10.88;66.75;101381.75;5022919;28;45372;-52
2023/01/12 01:50:27;;;;;;;;;3.25;3.00;;;;;10.79;66.89;101372.16;5021665;28;46364;-49
2023/01/12 01:52:59;;;;;;;;;4.50;3.00;;;;;10.81;66.93;101375.63;5010743;28;45295;-50
2023/01/12 01:55:35;;;;;;;;;6.25;2.50;;;;;10.84;66.97;101369.47;5022760;28;45323;-51
2023/01/12 01:58:08;;;;;;;;;3.25;1.50;;;;;10.86;66.99;101359.84;5022495;28;45337;-50
2023/01/12 02:00:37;;;;;;;;;4.75;3.75;;;;;10.79;66.92;101337.09;5021126;28;48004;-52
2023/01/12 02:03:04;;;;;;;;;4.75;2.75;;;;;10.85;67.14;101350.19;5022595;28;45240;-51
2023/01/12 02:05:30;;;;;;;;;7.25;1.75;;;;;10.85;67.05;101344.94;5022531;28;45227;-52
2023/01/12 02:08:10;;;;;;;;;5.00;3.75;;;;;10.84;67.04;101356.31;5022560;28;45432;-52
2023/01/12 02:10:37;;;;;;;;;1.50;1.50;;;;;10.82;67.10;101369.50;5022317;28;46226;-52
2023/01/12 02:16:21;;;;;;;;;6.00;2.75;;;;;10.73;67.41;101357.25;5022700;28;45151;-52
2023/01/12 02:19:14;;;;;;;;;4.50;3.00;;;;;10.79;67.32;101368.63;5022234;28;45392;-52
2023/01/12 02:22:12;;;;;;;;;6.50;2.25;;;;;10.76;67.50;101348.50;5022203;28;45229;-52
2023/01/12 02:25:15;;;;;;;;;3.00;2.75;;;;;10.74;67.44;101347.63;5022270;28;45348;-53
2023/01/12 02:28:00;;;;;;;;;4.75;2.00;;;;;10.80;67.68;101344.94;5022002;28;45774;-52
2023/01/12 02:30:34;;;;;;;;;2.00;2.00;;;;;10.82;67.40;101334.44;5022170;28;45594;-51
2023/01/12 02:33:33;;;;;;;;;5.75;2.50;;;;;10.79;67.45;101330.09;5021231;28;46118;-50
2023/01/12 02:36:28;;;;;;;;;5.00;3.00;;;;;10.80;67.54;101321.28;5022038;28;45309;-50
2023/01/12 02:39:08;;;;;;;;;3.50;2.00;;;;;10.80;67.53;101325.69;5022190;28;45317;-53
2023/01/12 02:44:41;;;;;;;;;6.25;2.25;;;;;10.82;67.57;101319.53;5021616;28;45843;-52
2023/01/12 02:47:15;;;;;;;;;3.00;2.25;;;;;10.88;67.42;101321.28;5021841;28;45368;-51
2023/01/12 02:49:49;;;;;;;;;5.75;2.50;;;;;10.89;67.39;101305.47;5022140;28;45438;-52
2023/01/12 02:52:18;;;;;;;;;6.00;3.50;;;;;10.85;67.52;101297.59;5021429;28;45335;-51
2023/01/12 02:54:47;;;;;;;;;2.75;1.00;;;;;10.88;67.44;101303.72;5021847;28;45545;-52
2023/01/12 02:57:14;;;;;;;;;6.75;3.00;;;;;10.85;67.66;101297.59;5021475;28;45178;-52
2023/01/12 02:59:44;;;;;;;;;8.00;2.25;;;;;10.85;67.58;101295.84;5021734;28;45245;-50
2023/01/12 03:02:13;;;;;;;;;5.25;1.50;;;;;10.86;67.51;101304.63;5018641;28;45400;-49
2023/01/12 03:04:40;;;;;;;;;4.00;2.00;;;;;10.87;67.72;101295.84;5021595;28;45317;-51
2023/01/12 03:07:27;;;;;;;;;2.50;2.00;;;;;10.92;67.56;101285.28;5020956;28;45269;-51
2023/01/12 03:10:00;;;;;;;;;2.00;0.00;;;;;10.93;67.31;101290.56;5021586;28;45439;-50
2023/01/12 03:12:33;;;;;;;;;4.25;2.75;;;;;10.95;67.41;101272.13;5021403;28;45187;-51
2023/01/12 03:15:03;;;;;;;;;9.00;3.00;;;;;10.93;67.67;101279.16;5021302;28;45155;-52
2023/01/12 03:17:42;;;;;;;;;3.00;1.50;;;;;10.92;67.62;101264.25;5021359;28;45444;-51
2023/01/12 03:20:25;;;;;;;;;4.50;2.00;;;;;10.94;67.53;101252.84;5021458;28;45167;-51
2023/01/12 03:22:59;;;;;;;;;1.00;1.00;;;;;10.95;67.73;101257.22;5021344;28;45290;-48
2023/01/12 03:25:26;;;;;;;;;4.75;3.25;;;;;10.97;67.72;101255.47;5021301;28;46121;-48
2023/01/12 03:27:58;;;;;;;;;6.00;3.00;;;;;10.96;67.84;101255.47;5020977;28;45237;-51
2023/01/12 03:30:29;;;;;;;;;8.50;6.00;;;;;10.97;67.89;101246.69;5021230;28;45327;-51
2023/01/12 03:32:55;;;;;;;;;8.25;5.00;;;;;10.94;67.94;101250.19;5021083;28;45399;-50
2023/01/12 03:35:26;;;;;;;;;7.00;6.50;;;;;10.96;68.18;101237.94;5021198;28;46215;-48
2023/01/12 03:37:57;;;;;;;;;11.25;5.75;;;;;10.95;67.98;101233.53;5021042;28;45271;-49
2023/01/12 03:40:28;;;;;;;;;4.75;4.75;;;;;10.89;68.10;101252.88;5021164;28;45430;-49
2023/01/12 03:43:05;;;;;;;;;2.00;2.00;;;;;10.92;68.35;101249.34;5020627;28;45232;-51
2023/01/12 03:45:38;;;;;;;;;6.25;4.25;;;;;10.96;68.27;101237.06;5019995;28;45268;-49
2023/01/12 03:48:17;;;;;;;;;6.25;2.50;;;;;11.00;68.19;101242.28;5020998;28;45325;-52
2023/01/12 03:51:11;;;;;;;;;4.50;2.00;;;;;10.94;68.33;101236.19;5020734;28;45542;-52
2023/01/12 03:53:38;;;;;;;;;9.25;2.50;;;;;10.96;68.88;101223.91;5018417;28;45443;-51
2023/01/12 03:56:08;;;;;;;;;3.25;1.50;;;;;10.97;68.15;101241.41;5019384;28;47362;-48
2023/01/12 03:58:34;;;;;;;;;3.75;1.50;;;;;10.94;68.50;101220.41;5019290;28;45224;-50
2023/01/12 04:01:01;;;;;;;;;4.00;1.00;;;;;10.88;68.52;101219.59;5020914;28;45416;-51
2023/01/12 04:03:26;;;;;;;;;3.50;2.00;;;;;10.86;68.30;101231.00;5020751;28;45431;-48
2023/01/12 04:05:52;;;;;;;;;3.25;2.50;;;;;10.98;68.57;101223.03;5019270;28;47245;-52
2023/01/12 04:08:17;;;;;;;;;6.50;3.50;;;;;10.91;68.39;101213.44;5019341;28;45360;-52
2023/01/12 04:10:42;;;;;;;;;5.00;2.00;;;;;10.94;68.44;101215.16;5020849;28;45458;-53
2023/01/12 04:13:08;;;;;;;;;3.50;2.00;;;;;10.91;68.39;101192.38;5020278;28;45324;-48
2023/01/12 04:15:41;;;;;;;;;2.50;1.25;;;;;10.87;68.53;101195.94;5020618;28;47253;-49
2023/01/12 04:18:10;;;;;;;;;4.50;3.25;;;;;10.94;68.47;101194.13;5017104;28;45430;-53
2023/01/12 04:20:35;;;;;;;;;5.00;2.25;;;;;10.98;68.42;101201.09;5018831;28;45400;-50
2023/01/12 04:23:01;;;;;;;;;5.00;3.00;;;;;10.98;68.38;101187.94;5018023;28;45328;-50
2023/01/12 04:25:26;;;;;;;;;2.00;1.00;;;;;10.93;68.59;101192.38;5019312;28;46300;-50
2023/01/12 04:28:01;;;;;;;;;2.75;2.00;;;;;10.90;68.43;101182.75;5019297;28;45241;-50
2023/01/12 04:30:27;;;;;;;;;4.75;3.25;;;;;10.92;68.63;101225.69;5019221;28;45343;-48
2023/01/12 04:32:54;;;;;;;;;5.75;3.50;;;;;10.94;68.83;101181.84;5019571;28;45475;-48
2023/01/12 04:35:20;;;;;;;;;4.00;1.00;;;;;10.95;68.60;101180.09;5019041;28;46364;-51
2023/01/12 04:37:46;;;;;;;;;4.00;1.00;;;;;10.95;68.50;101162.53;5018135;28;45403;-50
2023/01/12 04:40:13;;;;;;;;;6.25;2.50;;;;;10.94;68.73;101176.56;5033523;28;45309;-52
2023/01/12 04:43:00;;;;;;;;;4.50;2.00;;;;;10.98;68.70;101149.38;5018875;28;45357;-49
2023/01/12 04:45:30;;;;;;;;;6.50;5.00;;;;;11.03;68.53;101147.56;5018988;28;45526;-49
2023/01/12 04:47:59;;;;;;;;;4.00;0.00;;;;;10.99;68.67;101139.72;5013026;28;45303;-51
2023/01/12 04:50:24;;;;;;;;;5.25;4.50;;;;;10.94;68.72;101145.03;5016332;28;45676;-48
2023/01/12 04:52:50;;;;;;;;;7.00;4.25;;;;;10.97;68.69;101167.78;5034461;28;45422;-51
2023/01/12 04:55:16;;;;;;;;;3.50;2.00;;;;;10.99;68.72;101173.91;5018958;28;45717;-51
2023/01/12 04:57:41;;;;;;;;;5.25;2.25;;;;;11.00;68.67;101170.41;5018772;28;45219;-50
2023/01/12 05:00:07;;;;;;;;;3.75;2.00;;;;;11.00;68.71;101154.63;5017850;28;45503;-51
2023/01/12 05:02:33;;;;;;;;;1.00;1.00;;;;;11.04;68.82;101153.69;5006966;28;45156;-50
2023/01/12 05:04:58;;;;;;;;;2.25;0.75;;;;;11.03;68.86;101144.94;5019611;28;47290;-52
2023/01/12 05:07:24;;;;;;;;;7.75;3.00;;;;;11.02;68.79;101144.97;5020039;28;45202;-49
2023/01/12 05:12:33;;;;;;;;;4.25;2.50;;;;;11.00;68.58;101139.69;5019469;28;45349;-52
2023/01/12 05:14:58;;;;;;;;;3.00;2.00;;;;;11.08;68.69;101126.50;5019494;28;46215;-49
2023/01/12 05:17:23;;;;;;;;;6.50;3.00;;;;;11.14;68.54;101134.31;5019850;28;45308;-49
2023/01/12 05:19:49;;;;;;;;;5.75;1.75;;;;;11.11;68.60;101133.50;5019829;28;45213;-52
2023/01/12 05:22:14;;;;;;;;;6.50;1.75;;;;;11.12;68.35;101135.22;5019747;28;45420;-51
2023/01/12 05:24:40;;;;;;;;;4.50;3.00;;;;;11.08;68.72;101131.75;5019740;28;46542;-52
2023/01/12 05:27:05;;;;;;;;;3.50;2.75;;;;;11.08;68.79;101133.50;5019516;28;45258;-49
2023/01/12 05:29:31;;;;;;;;;8.25;3.00;;;;;11.13;68.83;101118.53;5019642;28;45247;-47
2023/01/12 05:31:56;;;;;;;;;3.00;1.50;;;;;11.13;68.56;101153.63;5019404;28;45562;-51
2023/01/12 05:34:21;;;;;;;;;5.25;2.25;;;;;11.13;68.70;101124.69;5019490;28;46098;-52
2023/01/12 05:36:47;;;;;;;;;7.25;3.50;;;;;11.15;68.54;101132.56;5019617;28;45284;-51
2023/01/12 05:39:12;;;;;;;;;7.00;3.00;;;;;11.18;68.81;101122.88;5019766;28;45360;-50
2023/01/12 05:43:49;;;;;;;;;5.25;2.00;;;;;11.25;68.42;101131.56;5019322;28;45491;-47
2023/01/12 05:44:23;;;;;;;;;3.25;2.25;;;;;11.29;68.37;101122.75;5019157;28;45563;-49
2023/01/12 05:46:48;;;;;;;;;3.75;1.50;;;;;11.30;68.50;101137.66;5019224;28;45313;-50
2023/01/12 05:49:14;;;;;;;;;3.00;2.00;;;;;11.31;68.33;101118.34;5019397;28;45356;-49
2023/01/12 05:51:39;;;;;;;;;1.25;1.25;;;;;11.31;68.43;101131.50;5019275;28;45410;-48
2023/01/12 05:54:04;;;;;;;;;4.25;2.50;;;;;11.28;68.50;101128.94;5019189;28;46169;-48
2023/01/12 05:56:31;;;;;;;;;5.25;3.00;;;;;11.31;68.42;101131.50;5018965;28;45451;-49
2023/01/12 05:58:59;;;;;;;;;2.50;2.25;;;;;11.35;68.31;101135.84;5017715;28;45273;-51
2023/01/12 06:01:25;;;;;;;;;1.25;1.00;;;;;11.34;68.47;101133.22;5017715;28;46069;-48
2023/01/12 06:03:53;;;;;;;;;3.25;3.00;;;;;11.41;68.35;101150.69;5018969;28;46137;-48
2023/01/12 06:06:20;;;;;;;;;5.25;2.25;;;;;11.41;68.34;101149.81;5018977;28;45410;-51
2023/01/12 06:08:46;;;;;;;;;4.50;2.25;;;;;11.42;68.35;101148.94;5020188;28;45204;-53
2023/01/12 06:13:56;;;;;;;;;4.50;3.75;;;;;11.47;68.07;101141.84;5022281;28;45324;-51
2023/01/12 06:16:21;;;;;;;;;7.00;6.25;;;;;11.49;68.33;101142.72;5022423;28;45174;-51
2023/01/12 06:18:47;;;;;;;;;5.25;3.00;;;;;11.48;68.41;101125.19;5021210;28;45248;-52
2023/01/12 06:21:12;;;;;;;;;5.50;2.00;;;;;11.49;68.58;101116.41;5022443;28;45155;-51
2023/01/12 06:23:38;;;;;;;;;6.00;2.00;;;;;11.49;68.49;101119.88;5022301;28;45304;-52
2023/01/12 06:26:05;;;;;;;;;4.25;1.00;;;;;11.52;68.33;101116.34;5020977;28;45368;-48
2023/01/12 06:28:30;;;;;;;;;2.00;2.00;;;;;11.51;68.34;101119.91;5015348;28;45619;-51
2023/01/12 06:31:01;;;;;;;;;6.00;3.00;;;;;11.50;68.57;101131.31;5007365;28;45669;-51
2023/01/12 06:33:27;;;;;;;;;5.25;1.75;;;;;11.50;68.61;101152.34;5021616;28;45305;-49
2023/01/12 06:35:54;;;;;;;;;3.75;2.50;;;;;11.49;68.62;101129.56;5016974;28;45233;-51
2023/01/12 06:38:22;;;;;;;;;4.50;1.00;;;;;11.49;68.60;101130.41;5020252;28;45373;-53
2023/01/12 06:40:47;;;;;;;;;1.75;1.00;;;;;11.50;68.67;101123.41;5017121;28;45374;-54
2023/01/12 06:43:12;;;;;;;;;0.00;0.00;;;;;11.48;68.83;101148.88;5020173;28;45308;-48
2023/01/12 06:45:38;;;;;;;;;4.75;1.25;;;;;11.48;68.54;101136.59;5018520;28;45420;-49
2023/01/12 06:48:03;;;;;;;;;5.50;2.00;;;;;11.49;68.49;101155.88;5020531;28;45634;-50
2023/01/12 06:50:29;;;;;;;;;4.00;1.00;;;;;11.58;68.52;101152.28;5020551;28;45898;-53
2023/01/12 06:52:58;;;;;;;;;6.50;3.00;;;;;11.54;68.57;101156.69;5019918;28;47424;-52
2023/01/12 06:55:23;;;;;;;;;3.50;2.25;;;;;11.58;68.56;101157.53;5019862;28;45332;-53
2023/01/12 06:57:49;;;;;;;;;6.50;4.00;;;;;11.54;68.68;101151.44;5020261;28;45550;-50
2023/01/12 07:00:15;;;;;;;;;2.25;2.00;;;;;11.60;68.58;101150.50;5019343;28;45402;-51
2023/01/12 07:02:41;;;;;;;;;6.50;3.25;;;;;11.61;68.49;101175.91;5018626;28;45483;-49
2023/01/12 07:05:06;;;;;;;;;2.75;1.75;;;;;11.63;68.54;101145.19;5020523;28;45267;-49
2023/01/12 07:07:31;;;;;;;;;4.00;1.00;;;;;11.57;68.82;101161.06;5020291;28;45348;-53
2023/01/12 07:09:57;;;;;;;;;3.50;1.00;;;;;11.64;68.58;101150.41;5019633;28;45623;-50
2023/01/12 07:12:22;;;;;;;;;4.75;2.00;;;;;11.66;68.63;101139.88;5019375;28;46093;-53
2023/01/12 07:14:48;;;;;;;;;3.00;1.75;;;;;11.64;68.93;101141.66;5019529;28;45383;-51
2023/01/12 07:17:13;;;;;;;;;4.25;3.00;;;;;11.60;68.98;101146.09;5019741;28;45431;-57
2023/01/12 07:19:39;;;;;;;;;4.00;1.50;;;;;11.66;68.88;101145.13;5018099;28;45493;-50
2023/01/12 07:22:04;;;;;;;;;2.00;1.50;;;;;11.64;69.16;101145.16;5019514;28;46234;-52
2023/01/12 07:24:29;;;;;;;;;2.00;2.00;;;;;11.58;69.16;101153.13;5020144;28;45361;-53
2023/01/12 07:26:57;;;;;;;;;3.00;1.25;;;;;11.54;69.34;101141.75;5020055;28;45335;-50
2023/01/12 07:29:22;;;;;;;;;4.25;2.75;;;;;11.53;69.49;101145.31;5018969;28;45655;-52
2023/01/12 07:31:48;;;;;;;;;3.50;1.75;;;;;11.54;69.48;101144.38;5018509;28;46966;-53
2023/01/12 07:34:14;;;;;;;;;4.50;2.00;;;;;11.49;69.41;101138.31;5021173;28;45263;-52
2023/01/12 07:36:39;;;;;;;;;2.00;1.00;;;;;11.45;69.39;101146.28;5023467;28;45312;-51
2023/01/12 07:39:04;;;;;;;;;1.25;1.25;;;;;11.40;69.60;101143.69;5029825;28;45397;-52
2023/01/12 07:44:13;;;;;;;;;4.75;1.75;;;;;11.33;69.23;101136.75;5007961;28;45399;-53
2023/01/12 07:46:39;;;;;;;;;4.75;2.00;;;;;11.34;69.53;101149.88;5020163;28;45177;-52
2023/01/12 07:49:04;;;;;;;;;4.00;2.00;;;;;11.34;69.55;101141.13;5019492;28;45282;-49
2023/01/12 07:51:30;;;;;;;;;5.25;2.75;;;;;11.14;69.40;101104.50;5020477;28;45367;-51
2023/01/12 07:53:56;;;;;;;;;4.00;1.75;;;;;11.36;69.69;101137.59;5008772;28;45312;-52
2023/01/12 07:56:21;;;;;;;;;1.00;1.00;;;;;11.36;69.38;101155.16;5020822;28;45341;-52
2023/01/12 07:58:48;;;;;;;;;1.00;1.00;;;;;11.38;69.42;101130.56;5019526;28;45447;-52
2023/01/12 08:01:14;;;;;;;;;7.00;2.75;;;;;11.41;69.49;101139.28;5007375;28;45352;-53
2023/01/12 08:03:39;;;;;;;;;1.50;0.75;;;;;11.51;69.39;101136.53;5016431;28;45431;-51
2023/01/12 08:06:05;;;;;;;;;6.25;2.00;;;;;11.50;69.37;101133.94;5020742;28;45326;-52
2023/01/12 08:08:31;;;;;;;;;3.00;2.00;;;;;11.44;69.38;101123.47;5020673;28;45288;-48
2023/01/12 08:11:03;;;;;;;;;2.25;2.00;;;;;11.44;69.71;101131.38;5013833;28;45326;-50
2023/01/12 08:13:29;;;;;;;;;3.25;0.75;;;;;11.44;69.54;101115.59;5014237;28;45535;-53
2023/01/12 08:15:57;;;;;;;;;3.50;1.00;;;;;11.54;69.58;101143.53;5009295;28;45333;-51
2023/01/12 08:18:35;;;;;;;;;3.50;2.25;;;;;11.53;69.43;101121.63;5019019;28;45270;-49
2023/01/12 08:21:06;;;;;;;;;3.25;1.00;;;;;11.52;69.92;101135.66;5009973;28;46169;-51
2023/01/12 08:23:37;;;;;;;;;1.00;1.00;;;;;11.51;69.69;101135.69;5020170;28;45265;-51
2023/01/12 08:26:10;;;;;;;;;2.00;1.00;;;;;11.56;69.43;101128.59;5020262;28;45375;-53
2023/01/12 08:28:51;;;;;;;;;7.25;1.50;;;;;11.56;69.77;101125.97;5015040;28;45549;-52
2023/01/12 08:31:18;;;;;;;;;1.50;1.00;;;;;11.61;69.63;101145.22;5017896;28;46159;-54
2023/01/12 08:33:45;;;;;;;;;2.50;2.00;;;;;11.60;69.60;101138.19;5019989;28;45357;-53
2023/01/12 08:36:13;;;;;;;;;3.25;2.00;;;;;11.60;69.73;101145.25;5020259;28;45259;-52
2023/01/12 08:38:39;;;;;;;;;5.00;5.00;;;;;11.62;69.70;101143.44;5020312;28;45660;-52
2023/01/12 08:44:01;;;;;;;;;2.00;2.00;;;;;11.60;69.56;101142.59;5019734;28;45420;-52
2023/01/12 08:46:37;;;;;;;;;2.75;2.25;;;;;11.54;70.06;101152.28;5019973;28;45275;-49
2023/01/12 08:49:08;;;;;;;;;3.00;2.25;;;;;11.54;69.95;101161.97;5020014;28;45530;-53
2023/01/12 08:51:33;;;;;;;;;2.50;2.25;;;;;11.53;70.00;101142.66;5019482;28;46864;-52
2023/01/12 08:54:00;;;;;;;;;4.00;2.00;;;;;11.56;70.11;101144.41;5018504;28;45792;-51
2023/01/12 08:56:25;;;;;;;;;2.50;1.00;;;;;11.58;70.06;101158.38;5018474;28;45431;-50
2023/01/12 08:58:50;;;;;;;;;3.00;2.00;;;;;11.60;69.83;101147.88;5019521;28;45324;-48
2023/01/12 09:01:16;;;;;;;;;4.25;3.00;;;;;11.58;70.08;101168.06;5019311;28;45363;-52
2023/01/12 09:03:43;;;;;;;;;2.75;2.00;;;;;11.58;70.02;101160.16;5019914;28;45567;-52
2023/01/12 09:06:09;;;;;;;;;3.75;3.00;;;;;11.58;70.06;101147.00;5018404;28;45478;-50
2023/01/12 09:08:34;;;;;;;;;2.00;2.00;;;;;11.65;69.96;101152.16;5019855;28;45333;-52
2023/01/12 09:11:04;;;;;;;;;4.25;2.00;;;;;11.65;70.22;101146.91;5019118;28;46021;-52
2023/01/12 09:13:33;;;;;;;;;4.00;2.25;;;;;11.60;70.03;101139.97;5019307;28;45421;-50
2023/01/12 09:16:07;;;;;;;;;6.00;4.25;;;;;11.66;70.12;101146.03;5018152;28;45338;-51
2023/01/12 09:18:33;;;;;;;;;4.00;2.00;;;;;11.70;69.88;101155.63;5018384;28;45348;-52
2023/01/12 09:21:07;;;;;;;;;6.00;2.25;;;;;11.65;69.89;101141.63;5019462;28;45289;-51
2023/01/12 09:23:33;;;;;;;;;2.00;2.00;;;;;11.64;70.22;101150.41;5019248;28;45242;-51
2023/01/12 09:26:07;;;;;;;;;3.00;3.00;;;;;11.63;70.28;101158.34;5018184;28;45286;-50
2023/01/12 09:28:33;;;;;;;;;3.25;2.25;;;;;11.64;70.08;101132.00;5017000;28;45536;-52
2023/01/12 09:31:03;;;;;;;;;4.75;3.00;;;;;11.73;70.07;101151.22;5019346;28;45195;-53
2023/01/12 09:33:30;;;;;;;;;5.50;2.25;;;;;11.73;70.32;101153.84;5019159;28;45315;-52
2023/01/12 09:36:03;;;;;;;;;4.50;1.75;;;;;11.72;70.28;101155.59;5018354;28;45335;-52
2023/01/12 09:38:28;;;;;;;;;6.25;4.00;;;;;11.67;70.46;101153.03;5019060;28;45459;-53
2023/01/12 09:40:56;;;;;;;;;2.00;2.00;;;;;11.74;70.28;101160.88;5017374;28;47440;-53
2023/01/12 09:49:17;;;;;;;;;2.00;2.00;;;;;11.71;70.45;101165.25;5022664;28;45428;-53
2023/01/12 09:51:53;;;;;;;;;6.00;4.00;;;;;11.72;70.31;101171.38;5022557;28;45329;-50
2023/01/12 09:54:18;;;;;;;;;5.50;1.00;;;;;11.70;71.07;101194.25;5022430;28;45550;-52
2023/01/12 09:56:51;;;;;;;;;0.50;0.50;;;;;11.70;70.92;101163.50;5022633;28;45253;-49
2023/01/12 09:59:33;;;;;;;;;5.50;2.25;;;;;11.69;70.67;101164.41;5021971;28;45321;-53
2023/01/12 10:01:58;;;;;;;;;3.00;3.00;;;;;11.71;70.89;101160.00;5020894;28;46462;-50
2023/01/12 10:04:24;;;;;;;;;3.00;1.00;;;;;11.70;71.02;101160.03;5022053;28;45248;-52
2023/01/12 10:06:50;;;;;;;;;2.25;2.25;;;;;11.69;71.06;101159.13;5021090;28;45252;-52
2023/01/12 10:09:19;;;;;;;;;2.50;2.50;;;;;11.58;71.19;101176.81;5020733;28;45486;-52
2023/01/12 10:12:12;;;;;;;;;5.00;2.00;;;;;11.63;71.44;101180.25;5022235;28;46224;-51
2023/01/12 10:14:55;;;;;;;;;3.00;2.25;;;;;11.61;71.22;101170.66;5021978;28;45403;-52
2023/01/12 10:17:29;;;;;;;;;4.00;2.00;;;;;11.60;71.15;101156.63;5021912;28;45450;-50
2023/01/12 10:20:16;;;;;;;;;5.50;3.00;;;;;11.59;71.59;101169.81;5021923;28;45261;-49
2023/01/12 10:23:06;;;;;;;;;5.25;2.00;;;;;11.57;71.43;101166.31;5020803;28;46605;-52
2023/01/12 10:25:55;;;;;;;;;2.25;1.75;;;;;11.59;71.50;101162.78;5020344;28;45373;-51
2023/01/12 10:28:25;;;;;;;;;5.50;3.50;;;;;11.59;71.38;101165.41;5021304;28;45434;-50
2023/01/12 10:30:52;;;;;;;;;5.75;3.00;;;;;11.62;71.87;101153.97;5020889;28;45455;-53
2023/01/12 10:33:24;;;;;;;;;3.75;3.50;;;;;11.61;71.57;101150.47;5021654;28;46336;-52
2023/01/12 10:36:15;;;;;;;;;6.25;3.25;;;;;11.59;71.50;101164.53;5022262;28;45455;-49
2023/01/12 10:38:59;;;;;;;;;2.50;1.25;;;;;11.59;71.78;101165.41;5036954;28;45384;-54
2023/01/12 10:41:33;;;;;;;;;3.50;2.50;;;;;11.61;71.66;101158.38;5023980;28;45569;-51
2023/01/12 10:43:58;;;;;;;;;2.25;2.00;;;;;11.58;72.02;101150.50;5020105;28;48299;-53
2023/01/12 10:46:30;;;;;;;;;4.00;2.25;;;;;11.58;71.66;101153.13;5021613;28;45380;-52
2023/01/12 10:49:18;;;;;;;;;3.50;2.00;;;;;11.61;71.82;101147.84;5022157;28;45353;-53
2023/01/12 10:51:59;;;;;;;;;5.50;2.25;;;;;11.64;71.73;101137.25;5021688;28;45448;-52
2023/01/12 10:54:33;;;;;;;;;0.75;0.75;;;;;11.62;71.70;101151.34;5020849;28;45402;-52
2023/01/12 10:57:23;;;;;;;;;7.00;3.00;;;;;11.63;71.80;101139.91;5021527;28;45475;-51
2023/01/12 11:00:01;;;;;;;;;3.75;2.00;;;;;11.60;71.47;101140.84;5021373;28;45191;-51
2023/01/12 11:02:41;;;;;;;;;4.50;3.00;;;;;11.63;71.74;101127.63;5021206;28;45476;-52
2023/01/12 11:05:32;;;;;;;;;3.00;1.00;;;;;11.69;71.56;101143.34;5011754;28;46695;-51
2023/01/12 11:07:58;;;;;;;;;3.25;2.00;;;;;11.72;71.68;101129.25;5008996;28;45459;-52
2023/01/12 11:10:26;;;;;;;;;3.00;2.00;;;;;11.67;71.51;101134.59;5021350;28;45338;-52
2023/01/12 11:12:59;;;;;;;;;2.25;0.00;;;;;11.74;71.63;101129.28;5021052;28;45161;-51
2023/01/12 11:15:27;;;;;;;;;4.75;3.25;;;;;11.71;71.90;101117.88;5021144;28;45329;-53
2023/01/12 11:18:11;;;;;;;;;5.75;3.25;;;;;11.79;71.71;101111.66;5020240;28;45234;-52
2023/01/12 11:21:01;;;;;;;;;5.25;2.00;;;;;11.78;71.52;101104.63;5021060;28;45524;-52
2023/01/12 11:23:39;;;;;;;;;5.25;2.25;;;;;11.81;71.48;101110.72;5021015;28;45462;-52
2023/01/12 11:26:17;;;;;;;;;3.25;1.75;;;;;11.88;71.45;101103.59;5021293;28;46296;-52
2023/01/12 11:28:48;;;;;;;;;4.75;3.00;;;;;11.95;71.26;101107.00;5018342;28;45610;-53
2023/01/12 11:31:30;;;;;;;;;1.00;1.00;;;;;12.03;71.03;101092.03;5008024;28;45400;-50
2023/01/12 11:34:08;;;;;;;;;1.75;1.75;;;;;12.04;71.03;101091.13;5001442;28;45273;-53
2023/01/12 11:36:41;;;;;;;;;1.00;1.00;;;;;12.09;71.23;101091.94;5004944;28;45359;-51
2023/01/12 11:39:13;;;;;;;;;2.00;1.25;;;;;12.10;70.86;101076.97;5030854;28;45523;-53
2023/01/12 11:44:53;;;;;;;;;4.50;2.50;;;;;12.21;71.09;101104.03;5001133;28;45303;-52
2023/01/12 11:47:55;;;;;;;;;4.00;2.50;;;;;12.24;70.85;101096.09;5001065;28;45235;-53
2023/01/12 11:50:32;;;;;;;;;6.00;2.00;;;;;12.24;70.82;101109.28;4949910;28;45371;-52
2023/01/12 11:52:57;;;;;;;;;2.00;1.00;;;;;12.31;70.75;101091.59;4999127;28;45241;-50
2023/01/12 11:55:48;;;;;;;;;2.50;1.00;;;;;12.33;70.88;101089.81;5001027;28;45314;-52
2023/01/12 11:58:16;;;;;;;;;2.50;1.00;;;;;12.34;70.54;101087.16;4988783;28;45426;-53
2023/01/12 12:00:58;;;;;;;;;3.50;2.00;;;;;12.39;70.64;101102.00;5000750;28;45345;-49
2023/01/12 12:03:39;;;;;;;;;1.25;1.00;;;;;12.33;70.36;101095.09;5001026;28;45327;-52
2023/01/12 12:06:27;;;;;;;;;1.25;0.50;;;;;12.22;70.68;101076.81;4999776;28;46940;-52
2023/01/12 12:09:15;;;;;;;;;1.00;1.00;;;;;12.30;70.63;101076.66;5000731;28;45278;-53
2023/01/12 12:12:02;;;;;;;;;3.25;2.00;;;;;12.29;70.69;101067.91;5000765;28;45452;-52